Terminal Aerodrome Forecast
Issued by NWS

Home | Current Version | Previous Version | Text Only | Print | Product List | Glossary On
Versions: 1 2 3 4 5 6 7 8 9 10 11 12
884
FTUS45 KRIW 101721
TAFCOD
TAF
KCOD 101721Z 1018/1118 25011KT P6SM VCSH SCT040 BKN060
     FM110000 36011KT P6SM VCSH BKN035
     FM110600 31007KT P6SM BKN050
     FM111700 25012KT P6SM BKN080
      AMD LTD TO CLD VIS AND WIND=

USA.gov is the U.S. government's official web portal to all federal, state and local government web resources and services.